TFFF Airport Information

Runway Information
Runway 10 Length 9843 ft width 148 ft Elevation 10 ft Threshold N/A Heading 80
Runway 28 Length 9843 ft Width 148 ft Elevation 14 ft Threshold 984 ft Heading 260
Airport Frequencies
Type APP Name FORT DE FR Frequency 121 MHZ
Type ATIS Name ATIS Frequency 127.85 MHZ
Type GND Name GND Frequency 121.9 MHZ
Type TWR Name FORT DE FR Frequency 118.5 MHZ
Airport Navaids
Type VOR-DME Name Fort De France Frequency 113300 KHZ
Type NDB Name Fort De France Frequency 329 KHZ
Airport Weather Information & NOTAM
ADDS - METARS form results

(1650 UTC 08 December 2022)
Data provider http://aviationweather.gov/metar/data/
 
METAR text: TFFF 081630Z AUTO 27008KT 230V300 9999 ////// 30/19 Q1011
Conditions at: TFFF (LE LAMENTIN/MART, MQ) observed 1630 UTC 08 December 2022
Temperature: 30.0°C (86°F)
Dewpoint: 19.0°C (66°F) [RH = 52%]
Pressure (altimeter): 29.85 inches Hg (1011.0 mb)
Winds: from the W (270 degrees) at 9 MPH (8 knots; 4.1 m/s)
Visibility: 6 or more miles (10+ km)
Ceiling: unknown
Clouds: missing
Weather: no significant weather observed at this time

METAR text: TFFF 081600Z AUTO 29007KT 240V320 9999 FEW049 SCT056 30/20 Q1011 NOSIG
Conditions at: TFFF (LE LAMENTIN/MART, MQ) observed 1600 UTC 08 December 2022
Temperature: 30.0°C (86°F)
Dewpoint: 20.0°C (68°F) [RH = 55%]
Pressure (altimeter): 29.85 inches Hg (1011.0 mb)
Winds: from the WNW (290 degrees) at 8 MPH (7 knots; 3.6 m/s)
Visibility: 6 or more miles (10+ km)
Ceiling: at least 12,000 feet AGL
Clouds: few clouds at 4900 feet AGL
scattered clouds at 5600 feet AGL
Weather: no significant weather observed at this time

Forecast for: TFFF (LE LAMENTIN/MART, MQ)
Text: TAF TFFF 081100Z 0812/0912 VRB02KT CAVOK
Forecast period: 1200 to 1400 UTC 08 December 2022
Forecast type: FROM: standard forecast or significant change
Winds: variable direction winds at 2 MPH (2 knots; 1.0 m/s)
Visibility: 6 or more miles (10+ km)
Ceiling: unknown
Clouds: missing
Weather: NSW  (no significant weather)
Text: BECMG 0814/0816 29012KT
Forecast period: 1400 to 2000 UTC 08 December 2022
Forecast type: BECOMING: Conditions expected to become as follows by 1600 UTC 08 December 2022
Winds: from the WNW (290 degrees) at 14 MPH (12 knots; 6.2 m/s)
Visibility: 6 or more miles (10+ km)
Ceiling: unknown
Clouds: missing
Weather: NSW  (no significant weather)
Text: BECMG 0820/0822 VRB02KT
Forecast period: 2000 UTC 08 December 2022 to 1200 UTC 09 December 2022
Forecast type: BECOMING: Conditions expected to become as follows by 2200 UTC 08 December 2022
Winds: variable direction winds at 2 MPH (2 knots; 1.0 m/s)
Visibility: 6 or more miles (10+ km)
Ceiling: unknown
Clouds: missing
Weather: NSW  (no significant weather)